• Join FlightAware (Why Join?)
  • Login
  • US Flag 
10:15AM EST


 

Airport Tracker/Info


-or-


 

Live Flight TrackerFlight Track Log ✈ N960DL ✈ 05-May-2013 ✈ KMIA - KLGA

Flight Track Log - Related Links

Times and Time Zones

All times are in EDT time to prevent confusion due to time zone crossing. See the N960DL flight status page for this flight to view local times or setup timezone preferences in your user account.

Time Position Orientation Groundspeed Altitude Reporting Facility
EDT Latitude Longitude Course Direction KTS MPH feet Rate Location/Type
08:03PM 25.7847 -80.3156 336° Northwest 170 196 900  Level Miami Center
08:04PM 25.8019 -80.3808 286° West 251 289 2,400 2,100 Climbing Miami Center
08:06PM 26.1250 -80.3917 339° North  Level FlightAware Approximate
08:06PM 25.8419 -80.4533 302° West 267 307 5,600  Level Miami Center
08:06PM 25.8961 -80.4528 North 276 318 6,900 2,520 Climbing Miami Center
08:07PM 26.2376 -80.4271 336° Northwest  Level FlightAware Approximate
08:07PM 25.9253 -80.4558 355° North 292 336 8,200  Level Miami Center
08:07PM 25.9778 -80.4458 10° North 292 336 9,500 2,280 Climbing Miami Center
08:08PM 26.3460 -80.4813 336° Northwest  Level FlightAware Approximate
08:08PM 26.0572 -80.4414 North 329 379 12,000  Level Miami Center
08:09PM 26.4544 -80.5355 336° Northwest  Level FlightAware Approximate
08:09PM 26.1453 -80.4347 North 329 379 14,200  Level Miami Center
08:10PM 26.2353 -80.4283 North 329 379 16,300 2,100 Climbing Miami Center
08:11PM 26.3156 -80.4725 334° Northwest 319 367 18,500 1,800 Climbing Miami Center
08:12PM 26.4106 -80.5147 338° Northwest 324 373 20,000 1,200 Climbing Miami Center
08:13PM 26.4953 -80.5544 337° Northwest 348 400 20,900 960 Climbing Miami Center
08:14PM 26.6044 -80.6067 337° Northwest 381 438 22,000 840 Climbing Miami Center
08:15PM 26.7014 -80.6539 336° Northwest 406 467 22,600 900 Climbing Miami Center
08:16PM 26.8294 -80.7117 338° Northwest 434 499 23,800 1,260 Climbing Miami Center
08:17PM 26.9536 -80.7531 343° North 448 516 25,200 1,620 Climbing Miami Center
08:18PM 27.0756 -80.7967 342° North 458 527 27,100 1,560 Climbing Miami Center
08:19PM 27.1975 -80.8406 342° North 458 527 28,400 1,380 Climbing Miami Center
08:20PM 27.3175 -80.8819 343° North 458 527 29,900 1,200 Climbing Miami Center
08:21PM 27.4372 -80.9283 341° North 453 521 30,900 1,080 Climbing Miami Center
08:22PM 27.5553 -80.9700 343° North 448 516 32,100 900 Climbing Miami Center
08:23PM 27.6708 -81.0139 341° North 441 507 32,800 420 Climbing Miami Center
08:24PM 27.7906 -81.0558 343° North 435 501 33,000 60 Climbing Miami Center
08:25PM 27.9083 -81.1025 341° North 441 507 33,000  Level Miami Center
08:26PM 28.0156 -81.1394 343° North 441 507 33,000  Level Miami Center
08:27PM 28.1333 -81.1839 342° North 441 507 33,000  Level Miami Center
08:28PM 28.2653 -81.2314 342° North 441 507 33,000  Level Miami Center
08:29PM 28.3964 -81.2808 342° North 442 509 33,000  Level Jacksonville Center
08:30PM 28.5161 -81.3239 342° North 447 514 33,000  Level Jacksonville Center
08:31PM 28.6414 -81.3456 351° North 442 509 33,000  Level Jacksonville Center
08:32PM 28.7689 -81.3578 355° North 452 520 33,000  Level Jacksonville Center
08:33PM 28.8942 -81.3700 355° North 452 520 33,000  Level Jacksonville Center
08:34PM 29.0239 -81.3822 355° North 452 520 33,000  Level Jacksonville Center
08:35PM 29.1533 -81.3969 354° North 466 536 33,000  Level Jacksonville Center
08:36PM 29.2786 -81.4047 357° North 465 535 33,000  Level Jacksonville Center
08:37PM 29.4083 -81.4169 355° North 465 535 33,000  Level Jacksonville Center
08:38PM 29.5378 -81.4317 354° North 460 529 33,000  Level Jacksonville Center
08:39PM 29.6653 -81.4442 355° North 460 529 33,000  Level Jacksonville Center
08:40PM 29.7950 -81.4567 355° North 460 529 33,000  Level Jacksonville Center
08:41PM 29.9244 -81.4689 355° North 466 536 33,000  Level Jacksonville Center
08:42PM 30.0542 -81.4817 355° North 466 536 33,000  Level Jacksonville Center
08:43PM 30.1878 -81.4964 355° North 466 536 33,000  Level Jacksonville Center
08:44PM 30.3194 -81.5089 355° North 466 536 33,000  Level Jacksonville Center
08:45PM 30.4531 -81.5094 360° North 466 536 33,000  Level Jacksonville Center
08:46PM 30.5886 -81.4931 North 471 542 33,000  Level Jacksonville Center
08:47PM 30.7200 -81.4717 North 481 554 33,000  Level Jacksonville Center
08:48PM 30.8556 -81.4456 North 481 554 33,000  Level Jacksonville Center
08:49PM 30.9889 -81.4217 North 486 559 33,000  Level Jacksonville Center
08:50PM 31.1264 -81.3975 North 480 552 33,000  Level Jacksonville Center
08:51PM 31.2597 -81.3711 10° North 487 560 33,000  Level Jacksonville Center
08:52PM 31.3783 -81.3450 11° North 486 559 33,000  Level Jacksonville Center
08:53PM 31.5217 -81.2889 18° North 481 554 33,000  Level Jacksonville Center
08:54PM 31.6356 -81.2236 26° Northeast 497 572 33,000  Level Jacksonville Center
08:55PM 31.7703 -81.1428 27° Northeast 497 572 33,000  Level Jacksonville Center
08:56PM 31.8967 -81.0719 25° Northeast 497 572 33,000  Level Jacksonville Center
08:57PM 32.0228 -80.9961 27° Northeast 497 572 33,000  Level Jacksonville Center
08:58PM 32.1492 -80.9222 26° Northeast 502 578 33,000  Level Jacksonville Center
08:59PM 32.2608 -80.8558 27° Northeast 502 578 33,000  Level Jacksonville Center
09:00PM 32.3994 -80.7767 26° Northeast 507 583 33,000  Level Jacksonville Center
09:01PM 32.5108 -80.7075 28° Northeast 501 577 33,000  Level Jacksonville Center
09:02PM 32.6369 -80.6328 27° Northeast 501 577 33,000  Level Jacksonville Center
09:03PM 32.7631 -80.5581 26° Northeast 501 577 33,000  Level Jacksonville Center
09:04PM 32.8889 -80.4806 27° Northeast 506 582 33,000  Level Jacksonville Center
09:05PM 33.0269 -80.3975 27° Northeast 506 582 33,000  Level Jacksonville Center
09:06PM 33.1569 -80.3172 27° Northeast 511 588 33,000  Level Jacksonville Center
09:07PM 33.2683 -80.2542 25° Northeast 493 567 33,000 -60 Level Jacksonville Center
09:08PM 33.3878 -80.1786 28° Northeast 492 566 32,900  Descending Jacksonville Center
09:09PM 33.5133 -80.1025 27° Northeast 492 566 33,000  Climbing Jacksonville Center
09:10PM 33.6392 -80.0286 26° Northeast 492 566 33,000  Level Jacksonville Center
09:11PM 33.7625 -79.9497 28° Northeast 492 566 33,000  Level Jacksonville Center
09:12PM 33.8858 -79.8756 27° Northeast 492 566 33,000  Level Jacksonville Center
09:13PM 34.0114 -79.7986 27° Northeast 492 566 33,000  Level Jacksonville Center
09:15PM 34.1978 -79.6819 27° Northeast 471 542 33,000  Level Washington Center
09:16PM 34.3297 -79.6106 24° Northeast 487 560 33,000  Level Washington Center
09:17PM 34.4592 -79.5414 24° Northeast 492 566 33,000  Level Washington Center
09:18PM 34.5906 -79.4794 21° North 497 572 33,000  Level Washington Center
09:19PM 34.7181 -79.4097 24° Northeast 497 572 33,000  Level Washington Center
09:20PM 34.8456 -79.3400 24° Northeast 497 572 33,000  Level Washington Center
09:21PM 34.9728 -79.2722 24° Northeast 497 572 33,000  Level Washington Center
09:22PM 35.1000 -79.2044 24° Northeast 497 572 33,000  Level Washington Center
09:23PM 35.2294 -79.1367 23° Northeast 497 572 33,000  Level Washington Center
09:24PM 35.3564 -79.0683 24° Northeast 491 565 33,000  Level Washington Center
09:25PM 35.4836 -79.0000 24° Northeast 491 565 33,000  Level Washington Center
09:26PM 35.6128 -78.9339 23° Northeast 491 565 33,000  Level Washington Center
09:27PM 35.7400 -78.8650 24° Northeast 491 565 33,000  Level Washington Center
09:28PM 35.8756 -78.7886 25° Northeast 491 565 33,000  Level Washington Center
09:29PM 35.9908 -78.6931 34° Northeast 484 557 33,000  Level Washington Center
09:30PM 36.1017 -78.5972 35° Northeast 484 557 33,000  Level Washington Center
09:31PM 36.2083 -78.5008 36° Northeast 484 557 33,000  Level Washington Center
09:32PM 36.3172 -78.4044 35° Northeast 484 557 33,000  Level Washington Center
09:33PM 36.4258 -78.3075 36° Northeast 484 557 33,000  Level Washington Center
09:34PM 36.5344 -78.2081 36° Northeast 484 557 33,000  Level Washington Center
09:35PM 36.6242 -78.1128 40° Northeast 479 551 33,000  Level Washington Center
09:36PM 36.7392 -77.9972 39° Northeast 471 542 33,000  Level Washington Center
09:37PM 36.8433 -77.8939 38° Northeast 481 554 33,000  Level Washington Center
09:38PM 36.9433 -77.7878 40° Northeast 476 548 33,000  Level Washington Center
09:39PM 37.0453 -77.6867 38° Northeast 476 548 33,000  Level Washington Center
09:40PM 37.1472 -77.5825 39° Northeast 476 548 33,000  Level Washington Center
09:41PM 37.2492 -77.4783 39° Northeast 476 548 33,000  Level Washington Center
09:42PM 37.3508 -77.3761 39° Northeast 476 548 33,000  Level Washington Center
09:43PM 37.4525 -77.2714 39° Northeast 476 548 33,000  Level Washington Center
09:44PM 37.5433 -77.1792 39° Northeast 476 548 33,000  Level Washington Center
09:45PM 37.6447 -77.0736 39° Northeast 476 548 33,000  Level Washington Center
09:46PM 37.7442 -76.9681 40° Northeast 476 548 33,000  Level Washington Center
09:47PM 37.8433 -76.8644 40° Northeast 476 548 33,000  Level Washington Center
09:48PM 37.9422 -76.7608 40° Northeast 471 542 33,000  Level Washington Center
09:49PM 38.0411 -76.6597 39° Northeast 465 535 33,000  Level Washington Center
09:50PM 38.1422 -76.5528 40° Northeast 459 528 33,000  Level Washington Center
09:51PM 38.2389 -76.4508 40° Northeast 459 528 33,000  Level Washington Center
09:52PM 38.3481 -76.3436 38° Northeast 453 521 33,000 -180 Level Washington Center
09:53PM 38.4508 -76.2464 37° Northeast 448 516 32,700 -780 Descending Washington Center
09:54PM 38.5575 -76.1519 35° Northeast 453 521 31,500 -1,080 Descending Washington Center
09:55PM 38.6539 -76.0650 35° Northeast 459 528 30,600 -1,260 Descending Washington Center
09:56PM 38.7564 -75.9697 36° Northeast 459 528 29,000 -1,740 Descending Washington Center
09:57PM 38.8589 -75.8717 37° Northeast 459 528 27,100 -1,080 Descending Washington Center
09:58PM 38.9631 -75.7731 36° Northeast 459 528 26,900 -60 Descending Washington Center
09:59PM 39.0656 -75.6744 37° Northeast 459 528 27,000  Climbing Washington Center
10:00PM 39.1697 -75.5783 36° Northeast 459 528 27,000 -120 Level Washington Center
10:01PM 39.2697 -75.4789 38° Northeast 459 528 26,800 -660 Descending Washington Center
10:02PM 39.3717 -75.3928 33° Northeast 454 522 25,700 -1,320 Descending Washington Center
10:03PM 39.4714 -75.3039 35° Northeast 441 507 24,200 -1,620 Descending Washington Center
10:04PM 39.5650 -75.2175 35° Northeast 431 496 22,500 -1,860 Descending Washington Center
10:05PM 39.6689 -75.1225 35° Northeast 416 479 20,600 -1,860 Descending Washington Center
10:06PM 39.7622 -75.0381 35° Northeast 416 479 18,800 -1,740 Descending Washington Center
10:07PM 39.8578 -74.9564 33° Northeast 416 479 17,100 -1,980 Descending Washington Center
10:08PM 39.9425 -74.8664 39° Northeast 416 479 15,000 -2,220 Descending Washington Center
10:09PM 40.0147 -74.7653 47° Northeast 400 460 12,800 -2,280 Descending Washington Center
10:10PM 40.1000 -74.6500 46° Northeast 369 425 10,200 -1,380 Descending New York TRACON
10:11PM 40.1667 -74.5500 49° Northeast 366 421 10,000 -120 Descending New York TRACON
10:12PM 40.2333 -74.4667 44° Northeast 315 362 10,000 -660 Level New York TRACON
10:13PM 40.2833 -74.3833 52° Northeast 284 327 8,700 -1,500 Descending New York TRACON
10:14PM 40.3333 -74.3167 45° Northeast 280 322 7,200 -900 Descending New York TRACON
10:15PM 40.4000 -74.2500 37° Northeast 278 320 7,000 -120 Descending New York TRACON
10:16PM 40.4500 -74.1833 45° Northeast 278 320 7,000 -540 Level New York TRACON
10:17PM 40.5167 -74.1167 37° Northeast 272 313 6,000 -1,200 Descending New York TRACON
10:18PM 40.5833 -74.0667 30° Northeast 269 310 4,700 -1,080 Descending New York TRACON
10:19PM 40.6333 -74.0500 14° North 266 306 4,000 -420 Descending New York TRACON
10:20PM 40.7167 -74.0333 North 263 303 4,000  Level New York TRACON
10:21PM 40.7833 -74.0000 21° North 260 299 4,000 -300 Level New York TRACON
10:22PM 40.8333 -73.9667 27° Northeast 177 204 3,400 -480 Descending New York TRACON
10:23PM 40.8833 -73.9333 27° Northeast 179 206 3,000 -240 Descending New York TRACON
10:24PM 40.9167 -73.9000 37° Northeast 184 212 3,000 -300 Level New York TRACON
10:25PM 40.9000 -73.8500 114° Southeast 169 194 2,500 -660 Descending New York TRACON
10:26PM 40.8667 -73.8167 143° Southeast 170 196 1,700 -720 Descending New York TRACON
10:27PM 40.8333 -73.8333 201° Southwest 147 169 1,200 -780 Descending New York TRACON
10:28PM 40.8000 -73.8667 217° Southwest 144 166 200 -960 Descending New York TRACON